createdAt,value
2018-08-03T00:00:55.650Z,24.80
2018-08-03T00:02:57.764Z,24.60
2018-08-03T00:04:59.904Z,24.50
2018-08-03T00:07:02.038Z,24.30
2018-08-03T00:09:06.877Z,24.30
2018-08-03T00:11:08.998Z,24.20
2018-08-03T00:15:13.280Z,23.70
2018-08-03T00:17:15.509Z,23.60
2018-08-03T00:19:17.633Z,23.50
2018-08-03T00:21:20.089Z,23.50
2018-08-03T00:23:22.182Z,23.50
2018-08-03T00:25:24.278Z,23.50
2018-08-03T00:27:26.417Z,23.20
2018-08-03T00:29:28.519Z,23.20
2018-08-03T00:31:30.638Z,23.20
2018-08-03T00:33:32.794Z,23.10
2018-08-03T00:35:34.915Z,23.00
2018-08-03T00:37:43.798Z,23.10
2018-08-03T00:39:45.924Z,23.20
2018-08-03T00:41:48.064Z,23.00
2018-08-03T00:43:50.429Z,23.00
2018-08-03T00:45:52.570Z,23.20
2018-08-03T00:47:54.690Z,23.30
2018-08-03T00:49:56.813Z,23.20
2018-08-03T00:51:58.951Z,23.20
2018-08-03T00:54:01.097Z,23.10
2018-08-03T00:56:03.219Z,23.00
2018-08-03T00:58:05.426Z,22.90
2018-08-03T01:00:14.400Z,22.80
2018-08-03T01:02:16.534Z,22.90
2018-08-03T01:04:18.777Z,22.80
2018-08-03T01:06:20.868Z,22.70
2018-08-03T01:08:22.961Z,22.80
2018-08-03T01:10:25.162Z,22.70
2018-08-03T01:12:27.305Z,22.70
2018-08-03T01:14:29.426Z,22.70
2018-08-03T01:16:36.168Z,22.80
2018-08-03T01:18:38.278Z,22.80
2018-08-03T01:20:40.409Z,22.80
2018-08-03T01:22:42.659Z,22.70
2018-08-03T01:24:44.780Z,22.80
2018-08-03T01:26:46.910Z,22.70
2018-08-03T01:28:49.406Z,22.80
2018-08-03T01:30:51.521Z,22.80
2018-08-03T01:32:53.623Z,23.00
2018-08-03T01:34:55.757Z,22.80
2018-08-03T01:36:57.921Z,22.80
2018-08-03T01:39:00.106Z,22.80
2018-08-03T01:41:02.202Z,22.80
2018-08-03T01:43:04.726Z,23.00
2018-08-03T01:45:06.845Z,23.30
2018-08-03T01:47:08.989Z,23.10
2018-08-03T01:49:11.086Z,23.00
2018-08-03T01:51:13.182Z,23.00
2018-08-03T01:53:15.269Z,23.10
2018-08-03T01:55:17.402Z,23.40
2018-08-03T01:57:19.494Z,23.30
2018-08-03T01:59:21.597Z,23.30
2018-08-03T02:01:23.730Z,23.30
2018-08-03T02:03:25.870Z,23.40
2018-08-03T02:05:28.074Z,23.20
2018-08-03T02:07:30.182Z,23.20
2018-08-03T02:09:32.601Z,23.20
2018-08-03T02:11:34.778Z,23.20
2018-08-03T02:13:37.037Z,23.20
2018-08-03T02:15:39.167Z,23.30
2018-08-03T02:17:41.261Z,23.20
2018-08-03T02:19:43.381Z,23.20
2018-08-03T02:21:45.479Z,23.00
2018-08-03T02:23:47.606Z,23.00
2018-08-03T02:25:49.737Z,23.00
2018-08-03T02:27:51.869Z,22.90
2018-08-03T02:29:54.011Z,23.00
2018-08-03T02:31:56.145Z,22.80
2018-08-03T02:33:58.270Z,22.90
2018-08-03T02:36:00.459Z,22.80
2018-08-03T02:38:02.690Z,22.60
2018-08-03T02:40:04.829Z,22.50
2018-08-03T02:42:06.964Z,22.30
2018-08-03T02:44:09.647Z,22.20
2018-08-03T02:46:11.794Z,22.10
2018-08-03T02:48:13.925Z,22.10
2018-08-03T02:50:16.580Z,22.20
2018-08-03T02:52:18.686Z,22.20
2018-08-03T02:54:20.826Z,22.10
2018-08-03T02:56:22.980Z,22.10
2018-08-03T02:58:25.081Z,22.20
2018-08-03T03:00:27.249Z,22.10
2018-08-03T03:02:29.358Z,22.20
2018-08-03T03:04:31.451Z,22.10
2018-08-03T03:06:33.586Z,22.00
2018-08-03T03:08:35.906Z,22.00
2018-08-03T03:10:38.044Z,22.00
2018-08-03T03:12:40.166Z,22.10
2018-08-03T03:14:42.603Z,22.10
2018-08-03T03:16:44.765Z,22.20
2018-08-03T03:18:46.861Z,22.10
2018-08-03T03:20:48.949Z,22.00
2018-08-03T03:22:51.062Z,22.00
2018-08-03T03:24:53.215Z,22.00
2018-08-03T03:27:02.122Z,22.10
2018-08-03T03:29:04.226Z,22.10
2018-08-03T03:31:06.402Z,22.20
2018-08-03T03:33:08.537Z,22.00
2018-08-03T03:35:10.646Z,21.90
2018-08-03T03:37:12.893Z,22.00
2018-08-03T03:39:15.023Z,22.10
2018-08-03T03:41:17.166Z,22.10
2018-08-03T03:43:19.285Z,22.30
2018-08-03T03:45:21.419Z,22.30
2018-08-03T03:47:23.536Z,22.20
2018-08-03T03:49:25.730Z,22.40
2018-08-03T03:51:27.948Z,22.10
2018-08-03T03:53:30.158Z,22.00
2018-08-03T03:55:32.312Z,21.90
2018-08-03T03:57:34.481Z,22.00
2018-08-03T03:59:36.590Z,22.20
2018-08-03T04:01:38.772Z,22.30
2018-08-03T04:03:40.997Z,22.40
2018-08-03T04:05:43.130Z,22.40
2018-08-03T04:07:45.289Z,22.30
2018-08-03T04:09:47.585Z,22.30
2018-08-03T04:11:49.771Z,22.30
2018-08-03T04:13:51.885Z,22.10
2018-08-03T04:15:54.009Z,22.20
2018-08-03T04:17:56.173Z,22.20
2018-08-03T04:19:58.355Z,22.20
2018-08-03T04:22:00.546Z,22.10
2018-08-03T04:24:02.743Z,22.10
2018-08-03T04:26:05.045Z,21.90
2018-08-03T04:28:07.649Z,21.80
2018-08-03T04:30:09.799Z,21.90
2018-08-03T04:32:11.910Z,21.90
2018-08-03T04:34:14.345Z,21.90
2018-08-03T04:36:16.494Z,22.00
2018-08-03T04:38:18.623Z,22.00
2018-08-03T04:40:20.889Z,21.90
2018-08-03T04:42:23.057Z,21.80
2018-08-03T04:44:25.163Z,21.50
2018-08-03T04:46:27.253Z,21.40
2018-08-03T04:48:29.442Z,21.50
2018-08-03T04:50:31.570Z,21.60
2018-08-03T04:52:34.599Z,21.90
2018-08-03T04:54:36.936Z,21.90
2018-08-03T04:56:39.045Z,21.50
2018-08-03T04:58:41.181Z,21.70
2018-08-03T05:00:43.342Z,21.60
2018-08-03T05:02:45.494Z,21.40
2018-08-03T05:04:47.649Z,21.80
2018-08-03T05:06:49.772Z,21.80
2018-08-03T05:08:53.273Z,21.80
2018-08-03T05:10:55.423Z,21.60
2018-08-03T05:12:57.608Z,22.00
2018-08-03T05:14:59.779Z,22.00
2018-08-03T05:17:04.285Z,21.80
2018-08-03T05:19:06.436Z,21.60
2018-08-03T05:21:08.566Z,21.90
2018-08-03T05:23:10.709Z,22.00
2018-08-03T05:25:12.862Z,21.80
2018-08-03T05:27:15.007Z,21.70
2018-08-03T05:29:17.613Z,21.90
2018-08-03T05:31:20.342Z,22.20
2018-08-03T05:33:22.489Z,22.20
2018-08-03T05:35:24.727Z,22.30
2018-08-03T05:37:26.828Z,22.40
2018-08-03T05:39:28.976Z,22.50
2018-08-03T05:41:31.110Z,22.30
2018-08-03T05:43:33.246Z,22.40
2018-08-03T05:45:35.983Z,22.20
2018-08-03T05:47:38.766Z,22.10
2018-08-03T05:49:41.674Z,22.20
2018-08-03T05:51:43.890Z,22.50
2018-08-03T05:53:46.074Z,22.50
2018-08-03T05:55:48.249Z,22.40
2018-08-03T05:57:50.463Z,22.60
2018-08-03T05:59:52.605Z,22.70
2018-08-03T06:01:54.832Z,22.70
2018-08-03T06:03:57.038Z,22.90
2018-08-03T06:05:59.302Z,23.00
2018-08-03T06:08:01.652Z,23.00
2018-08-03T06:10:04.010Z,23.10
2018-08-03T06:12:06.229Z,23.10
2018-08-03T06:14:08.369Z,23.20
2018-08-03T06:16:10.553Z,23.30
2018-08-03T06:18:12.718Z,23.30
2018-08-03T06:20:14.901Z,23.40
2018-08-03T06:22:17.077Z,23.70
2018-08-03T06:24:19.207Z,23.80
2018-08-03T06:26:21.350Z,23.80
2018-08-03T06:30:26.102Z,23.70
2018-08-03T06:32:28.258Z,23.80
2018-08-03T06:34:30.390Z,24.00
2018-08-03T06:36:32.968Z,24.00
2018-08-03T06:38:35.117Z,24.00
2018-08-03T06:40:37.270Z,24.00
2018-08-03T06:42:39.476Z,24.10
2018-08-03T06:44:41.632Z,24.20
2018-08-03T06:46:43.805Z,24.30
2018-08-03T06:48:46.014Z,24.50
2018-08-03T06:50:48.176Z,24.60
2018-08-03T06:52:50.360Z,24.80
2018-08-03T06:54:52.596Z,24.80
2018-08-03T06:56:54.724Z,24.90
2018-08-03T07:00:59.726Z,25.30
2018-08-03T07:03:01.878Z,25.30
2018-08-03T07:05:04.181Z,25.40
2018-08-03T07:07:06.434Z,25.30
2018-08-03T07:09:10.112Z,25.10
2018-08-03T07:11:12.314Z,25.20
2018-08-03T07:13:14.575Z,25.20
2018-08-03T07:15:16.737Z,25.30
2018-08-03T07:17:18.879Z,25.50
2018-08-03T07:19:21.052Z,25.60
2018-08-03T07:21:25.940Z,25.50
2018-08-03T07:23:28.139Z,25.50
2018-08-03T07:25:30.376Z,25.60
2018-08-03T07:27:33.534Z,25.80
2018-08-03T07:29:35.665Z,25.90
2018-08-03T07:31:38.068Z,25.80
2018-08-03T07:33:40.194Z,25.90
2018-08-03T07:35:42.470Z,26.20
2018-08-03T07:37:44.714Z,26.30
2018-08-03T07:39:46.843Z,26.40
2018-08-03T07:41:49.013Z,26.60
2018-08-03T07:43:51.170Z,26.80
2018-08-03T07:45:53.330Z,26.90
2018-08-03T07:47:55.499Z,27.00
2018-08-03T07:49:57.706Z,27.10
2018-08-03T07:52:00.024Z,27.20
2018-08-03T07:54:02.151Z,27.30
2018-08-03T07:56:04.691Z,27.20
2018-08-03T07:58:06.970Z,27.30
2018-08-03T08:00:09.122Z,27.50
2018-08-03T08:02:11.563Z,27.40
2018-08-03T08:04:13.722Z,27.20
2018-08-03T08:06:15.916Z,27.60
2018-08-03T08:08:18.237Z,27.40
2018-08-03T08:10:20.442Z,27.40
2018-08-03T08:12:22.650Z,27.40
2018-08-03T08:14:24.851Z,27.70
2018-08-03T08:16:27.033Z,27.70
2018-08-03T08:18:29.228Z,28.00
2018-08-03T08:20:31.391Z,28.20
2018-08-03T08:22:33.584Z,28.40
2018-08-03T08:24:35.709Z,28.20
2018-08-03T08:26:37.879Z,28.10
2018-08-03T08:28:40.006Z,27.90
2018-08-03T08:30:42.253Z,27.70
2018-08-03T08:32:44.387Z,28.00
2018-08-03T08:34:46.509Z,28.20
2018-08-03T08:36:49.533Z,28.10
2018-08-03T08:38:51.783Z,28.00
2018-08-03T08:40:53.962Z,28.10
2018-08-03T08:42:56.121Z,28.20
2018-08-03T08:44:58.302Z,28.50
2018-08-03T08:47:00.466Z,28.50
2018-08-03T08:49:03.188Z,28.20
2018-08-03T08:51:05.531Z,28.30
2018-08-03T08:53:07.740Z,28.50
2018-08-03T08:55:09.870Z,28.40
2018-08-03T08:57:12.038Z,28.70
2018-08-03T08:59:25.621Z,28.70
2018-08-03T09:01:27.718Z,28.80
2018-08-03T09:03:30.122Z,28.50
2018-08-03T09:05:32.299Z,28.60
2018-08-03T09:07:34.510Z,28.70
2018-08-03T09:09:36.808Z,28.70
2018-08-03T09:11:39.482Z,28.80
2018-08-03T09:13:41.696Z,29.20
2018-08-03T09:15:45.433Z,29.30
2018-08-03T09:17:47.633Z,29.10
2018-08-03T09:19:49.965Z,29.10
2018-08-03T09:21:53.084Z,29.30
2018-08-03T09:23:55.216Z,29.70
2018-08-03T09:25:57.573Z,30.00
2018-08-03T09:28:06.581Z,30.30
2018-08-03T09:30:09.484Z,30.00
2018-08-03T09:32:11.788Z,29.80
2018-08-03T09:34:13.917Z,29.80
2018-08-03T09:36:16.034Z,29.90
2018-08-03T09:38:18.186Z,29.50
2018-08-03T09:40:20.712Z,29.70
2018-08-03T09:42:22.936Z,29.90
2018-08-03T09:44:25.066Z,30.20
2018-08-03T09:47:31.206Z,30.50
2018-08-03T09:49:33.403Z,30.40
2018-08-03T09:51:37.110Z,30.20
2018-08-03T09:53:39.258Z,30.50
2018-08-03T09:55:41.435Z,30.60
2018-08-03T09:57:44.374Z,31.00
2018-08-03T09:59:46.904Z,31.30
2018-08-03T10:01:49.486Z,31.10
2018-08-03T10:03:57.463Z,30.90
2018-08-03T10:08:01.889Z,30.40
2018-08-03T10:10:04.806Z,30.80
2018-08-03T10:12:07.130Z,31.20
2018-08-03T10:14:09.259Z,31.00
2018-08-03T10:16:12.588Z,31.60
2018-08-03T10:18:14.885Z,31.50
2018-08-03T10:20:17.032Z,31.70
2018-08-03T10:22:19.253Z,31.80
2018-08-03T10:24:21.373Z,31.20
2018-08-03T10:26:23.550Z,31.30
2018-08-03T10:28:25.710Z,31.50
2018-08-03T10:30:27.858Z,31.70
2018-08-03T10:32:30.019Z,31.50
2018-08-03T10:34:32.150Z,31.50
2018-08-03T10:36:35.244Z,31.80
2018-08-03T10:40:39.573Z,33.00
2018-08-03T10:44:43.942Z,33.10
2018-08-03T10:46:46.083Z,32.90
2018-08-03T10:48:48.245Z,33.40
2018-08-03T10:50:50.396Z,33.30
2018-08-03T10:52:52.689Z,32.60
2018-08-03T10:54:54.980Z,32.00
2018-08-03T10:56:57.227Z,31.70
2018-08-03T10:58:59.367Z,32.30
2018-08-03T11:01:01.535Z,32.70
2018-08-03T11:03:03.707Z,32.70
2018-08-03T11:05:05.957Z,33.00
2018-08-03T11:07:08.122Z,32.50
2018-08-03T11:09:11.135Z,32.10
2018-08-03T11:11:13.355Z,32.50
2018-08-03T11:13:15.513Z,32.90
2018-08-03T11:15:17.698Z,33.20
2018-08-03T11:17:21.941Z,34.00
2018-08-03T11:19:24.362Z,33.40
2018-08-03T11:21:27.011Z,33.40
2018-08-03T11:23:29.236Z,33.40
2018-08-03T11:25:31.469Z,33.00
2018-08-03T11:27:33.759Z,32.60
2018-08-03T11:29:35.918Z,32.70
2018-08-03T11:31:38.075Z,32.90
2018-08-03T11:33:40.391Z,33.20
2018-08-03T11:35:42.567Z,34.00
2018-08-03T11:37:44.920Z,34.40
2018-08-03T11:39:47.087Z,34.30
2018-08-03T11:41:49.840Z,34.10
2018-08-03T11:43:58.630Z,33.80
2018-08-03T11:46:00.789Z,33.30
2018-08-03T11:48:03.116Z,33.00
2018-08-03T11:50:06.920Z,33.30
2018-08-03T11:52:09.077Z,33.70
2018-08-03T11:54:11.315Z,34.10
2018-08-03T11:56:13.494Z,34.10
2018-08-03T11:58:15.669Z,34.90
2018-08-03T12:00:17.970Z,35.00
2018-08-03T12:02:20.346Z,34.80
2018-08-03T12:04:22.461Z,35.30
2018-08-03T12:06:24.802Z,35.00
2018-08-03T12:08:26.979Z,34.70
2018-08-03T12:10:29.155Z,34.30
2018-08-03T12:12:31.312Z,34.10
2018-08-03T12:14:33.422Z,34.30
2018-08-03T12:16:35.564Z,34.70
2018-08-03T12:18:37.906Z,34.70
2018-08-03T12:20:40.206Z,34.80
2018-08-03T12:22:42.400Z,34.80
2018-08-03T12:24:45.447Z,34.70
2018-08-03T12:26:47.606Z,34.70
2018-08-03T12:28:49.750Z,35.20
2018-08-03T12:30:51.983Z,35.80
2018-08-03T12:32:54.382Z,36.40
2018-08-03T12:34:56.535Z,36.90
2018-08-03T12:36:58.724Z,36.50
2018-08-03T12:39:00.986Z,35.70
2018-08-03T12:41:03.120Z,35.40
2018-08-03T12:43:05.330Z,36.10
2018-08-03T12:45:07.537Z,37.00
2018-08-03T12:47:09.699Z,38.10
2018-08-03T12:49:11.924Z,38.70
2018-08-03T12:51:14.086Z,37.80
2018-08-03T12:53:16.226Z,38.40
2018-08-03T12:55:18.430Z,39.00
2018-08-03T12:57:20.603Z,38.80
2018-08-03T12:59:22.726Z,37.70
2018-08-03T13:01:24.841Z,36.60
2018-08-03T13:03:27.029Z,36.00
2018-08-03T13:05:29.214Z,36.10
2018-08-03T13:07:31.394Z,36.60
2018-08-03T13:09:33.582Z,37.70
2018-08-03T13:11:35.835Z,38.50
2018-08-03T13:13:37.986Z,38.90
2018-08-03T13:15:40.126Z,38.90
2018-08-03T13:17:42.623Z,38.80
2018-08-03T13:19:44.776Z,38.80
2018-08-03T13:21:46.962Z,39.50
2018-08-03T13:23:54.958Z,40.20
2018-08-03T13:25:57.167Z,39.50
2018-08-03T13:27:59.773Z,37.70
2018-08-03T13:30:02.027Z,38.20
2018-08-03T13:36:15.771Z,37.10
2018-08-03T13:38:19.007Z,36.80
2018-08-03T13:40:21.508Z,37.80
2018-08-03T13:42:23.718Z,39.00
2018-08-03T13:44:25.894Z,37.50
2018-08-03T13:48:37.009Z,34.30
2018-08-03T13:50:39.174Z,33.80
2018-08-03T13:52:42.224Z,35.00
2018-08-03T13:54:44.420Z,37.80
2018-08-03T13:56:46.582Z,38.00
2018-08-03T13:58:49.663Z,38.00
2018-08-03T14:01:02.039Z,38.40
2018-08-03T14:03:04.230Z,38.80
2018-08-03T14:05:06.695Z,39.10
2018-08-03T14:07:08.874Z,40.10
2018-08-03T14:09:11.019Z,40.70
2018-08-03T14:11:14.035Z,39.30
2018-08-03T14:13:16.184Z,39.70
2018-08-03T14:15:18.981Z,39.70
2018-08-03T14:17:21.257Z,38.60
2018-08-03T14:19:23.418Z,37.90
2018-08-03T14:21:25.561Z,36.70
2018-08-03T14:23:27.725Z,35.80
2018-08-03T14:25:29.961Z,35.30
2018-08-03T14:27:32.114Z,36.20
2018-08-03T14:29:34.322Z,37.50
2018-08-03T14:31:42.619Z,38.10
2018-08-03T14:33:44.812Z,38.80
2018-08-03T14:35:46.960Z,39.60
2018-08-03T14:37:49.518Z,39.80
2018-08-03T14:39:51.818Z,39.70
2018-08-03T14:41:54.064Z,38.60
2018-08-03T14:43:56.315Z,38.20
2018-08-03T14:45:58.449Z,37.30
2018-08-03T14:48:00.655Z,36.60
2018-08-03T14:50:02.902Z,36.30
2018-08-03T14:52:05.382Z,35.90
2018-08-03T14:54:07.509Z,35.50
2018-08-03T14:56:09.656Z,35.10
2018-08-03T14:58:11.936Z,35.20
2018-08-03T15:00:14.116Z,36.00
2018-08-03T15:02:16.268Z,36.60
2018-08-03T15:04:18.421Z,36.50
2018-08-03T15:06:21.226Z,36.50
2018-08-03T15:08:23.592Z,36.20
2018-08-03T15:10:25.914Z,36.40
2018-08-03T15:12:28.266Z,36.20
2018-08-03T15:14:30.567Z,36.00
2018-08-03T15:16:32.710Z,36.00
2018-08-03T15:18:35.026Z,35.80
2018-08-03T15:20:37.190Z,35.60
2018-08-03T15:22:40.001Z,35.60
2018-08-03T15:24:42.216Z,35.40
2018-08-03T15:26:44.443Z,35.10
2018-08-03T15:28:46.646Z,35.00
2018-08-03T15:30:48.778Z,34.90
2018-08-03T15:32:50.928Z,34.80
2018-08-03T15:34:53.092Z,34.70
2018-08-03T15:36:55.411Z,34.40
2018-08-03T15:38:57.629Z,34.30
2018-08-03T15:40:59.853Z,34.50
2018-08-03T15:43:01.984Z,34.40
2018-08-03T15:45:06.095Z,34.40
2018-08-03T15:47:08.217Z,34.40
2018-08-03T15:49:10.350Z,34.50
2018-08-03T15:51:12.661Z,34.40
2018-08-03T15:53:14.818Z,34.20
2018-08-03T15:55:17.251Z,34.10
2018-08-03T15:57:19.652Z,33.90
2018-08-03T15:59:21.860Z,33.80
2018-08-03T16:01:24.022Z,33.80
2018-08-03T16:03:26.466Z,33.70
2018-08-03T16:05:28.614Z,33.70
2018-08-03T16:07:30.790Z,33.60
2018-08-03T16:09:32.958Z,33.50
2018-08-03T16:11:35.118Z,33.40
2018-08-03T16:13:37.295Z,33.20
2018-08-03T16:15:39.431Z,33.10
2018-08-03T16:17:41.595Z,33.10
2018-08-03T16:19:43.846Z,33.00
2018-08-03T16:21:46.021Z,33.00
2018-08-03T16:23:48.400Z,32.90
2018-08-03T16:25:50.577Z,32.90
2018-08-03T16:27:52.737Z,32.90
2018-08-03T16:29:55.095Z,32.90
2018-08-03T16:31:57.602Z,32.80
2018-08-03T16:33:59.926Z,32.80
2018-08-03T16:36:02.078Z,32.60
2018-08-03T16:38:04.305Z,32.60
2018-08-03T16:40:07.242Z,32.50
2018-08-03T16:42:09.392Z,32.50
2018-08-03T16:44:11.615Z,32.60
2018-08-03T16:46:13.759Z,32.50
2018-08-03T16:48:15.909Z,32.50
2018-08-03T16:50:18.052Z,32.50
2018-08-03T16:52:20.236Z,32.40
2018-08-03T16:54:22.465Z,32.20
2018-08-03T16:56:24.831Z,32.20
2018-08-03T16:58:27.007Z,32.10
2018-08-03T17:00:29.204Z,32.10
2018-08-03T17:02:31.344Z,32.00
2018-08-03T17:04:33.735Z,32.10
2018-08-03T17:06:36.267Z,32.00
2018-08-03T17:08:38.548Z,32.00
2018-08-03T17:10:41.133Z,32.10
2018-08-03T17:12:43.393Z,31.90
2018-08-03T17:14:45.558Z,31.70
2018-08-03T17:16:49.514Z,31.60
2018-08-03T17:18:51.659Z,31.70
2018-08-03T17:20:53.869Z,31.60
2018-08-03T17:22:56.365Z,31.60
2018-08-03T17:24:58.569Z,31.60
2018-08-03T17:27:00.710Z,31.50
2018-08-03T17:29:02.918Z,31.30
2018-08-03T17:31:05.075Z,31.20
2018-08-03T17:33:07.211Z,31.30
2018-08-03T17:35:09.378Z,31.40
2018-08-03T17:37:11.538Z,31.30
2018-08-03T17:39:13.698Z,31.30
2018-08-03T17:43:18.222Z,31.20
2018-08-03T17:45:20.401Z,31.20
2018-08-03T17:47:22.594Z,31.20
2018-08-03T17:49:24.842Z,31.10
2018-08-03T17:51:27.018Z,31.20
2018-08-03T17:53:29.186Z,31.10
2018-08-03T17:55:31.391Z,31.10
2018-08-03T17:57:33.558Z,31.00
2018-08-03T17:59:35.715Z,30.90
2018-08-03T18:01:37.841Z,30.90
2018-08-03T18:03:40.015Z,30.80
2018-08-03T18:05:42.187Z,30.80
2018-08-03T18:07:44.322Z,30.70
2018-08-03T18:09:46.438Z,30.70
2018-08-03T18:11:48.651Z,30.60
2018-08-03T18:13:50.859Z,30.60
2018-08-03T18:15:53.054Z,30.60
2018-08-03T18:17:55.338Z,30.50
2018-08-03T18:19:58.282Z,30.50
2018-08-03T18:22:00.591Z,30.40
2018-08-03T18:24:02.806Z,30.40
2018-08-03T18:26:04.958Z,30.40
2018-08-03T18:28:07.163Z,30.50
2018-08-03T18:30:09.347Z,30.30
2018-08-03T18:32:11.603Z,30.20
2018-08-03T18:34:13.726Z,30.20
2018-08-03T18:36:16.059Z,30.10
2018-08-03T18:38:18.376Z,30.20
2018-08-03T18:40:20.566Z,30.20
2018-08-03T18:42:23.010Z,30.10
2018-08-03T18:44:25.145Z,30.00
2018-08-03T18:46:27.435Z,29.90
2018-08-03T18:48:29.617Z,29.90
2018-08-03T18:50:31.771Z,29.90
2018-08-03T18:52:33.957Z,29.80
2018-08-03T18:54:36.472Z,29.70
2018-08-03T18:56:38.711Z,29.70
2018-08-03T18:58:40.834Z,29.80
2018-08-03T19:02:45.370Z,29.20
2018-08-03T19:04:47.515Z,29.20
2018-08-03T19:06:49.689Z,29.10
2018-08-03T19:08:51.946Z,29.30
2018-08-03T19:10:54.083Z,29.10
2018-08-03T19:12:56.230Z,29.20
2018-08-03T19:14:58.410Z,28.90
2018-08-03T19:17:00.594Z,28.80
2018-08-03T19:19:02.898Z,28.90
2018-08-03T19:21:05.094Z,28.90
2018-08-03T19:23:07.214Z,28.70
2018-08-03T19:25:09.773Z,28.60
2018-08-03T19:27:12.136Z,28.50
2018-08-03T19:29:14.308Z,28.40
2018-08-03T19:31:16.473Z,28.50
2018-08-03T19:33:18.598Z,28.30
2018-08-03T19:35:20.738Z,28.60
2018-08-03T19:37:22.856Z,28.60
2018-08-03T19:39:25.042Z,28.60
2018-08-03T19:41:27.270Z,28.60
2018-08-03T19:43:29.406Z,28.60
2018-08-03T19:45:31.712Z,28.50
2018-08-03T19:47:33.895Z,28.50
2018-08-03T19:49:36.038Z,28.60
2018-08-03T19:51:38.146Z,28.60
2018-08-03T19:53:40.269Z,28.60
2018-08-03T19:55:42.554Z,28.50
2018-08-03T19:57:44.717Z,28.50
2018-08-03T19:59:47.076Z,28.50
2018-08-03T20:01:49.374Z,28.40
2018-08-03T20:03:51.525Z,28.30
2018-08-03T20:05:53.721Z,28.30
2018-08-03T20:07:56.054Z,28.30
2018-08-03T20:09:58.238Z,28.30
2018-08-03T20:12:00.426Z,28.30
2018-08-03T20:14:02.626Z,28.30
2018-08-03T20:16:04.813Z,28.40
2018-08-03T20:18:13.695Z,28.40
2018-08-03T20:20:15.849Z,28.40
2018-08-03T20:22:18.601Z,28.40
2018-08-03T20:24:20.824Z,28.20
2018-08-03T20:26:23.056Z,28.10
2018-08-03T20:28:25.559Z,28.10
2018-08-03T20:30:27.824Z,28.20
2018-08-03T20:32:30.032Z,28.10
2018-08-03T20:34:32.238Z,28.10
2018-08-03T20:36:34.395Z,28.10
2018-08-03T20:38:36.570Z,28.00
2018-08-03T20:40:38.850Z,28.00
2018-08-03T20:42:40.999Z,27.90
2018-08-03T20:44:43.166Z,27.90
2018-08-03T20:46:45.322Z,27.80
2018-08-03T20:48:47.737Z,27.80
2018-08-03T20:50:49.948Z,27.90
2018-08-03T20:52:52.229Z,27.90
2018-08-03T20:54:54.374Z,27.80
2018-08-03T20:56:56.756Z,27.70
2018-08-03T20:58:58.901Z,27.70
2018-08-03T21:01:01.233Z,27.70
2018-08-03T21:03:03.781Z,27.60
2018-08-03T21:05:05.950Z,27.70
2018-08-03T21:07:08.146Z,27.70
2018-08-03T21:09:11.610Z,27.60
2018-08-03T21:11:13.743Z,27.60
2018-08-03T21:13:15.907Z,27.60
2018-08-03T21:15:18.134Z,27.70
2018-08-03T21:17:20.810Z,27.60
2018-08-03T21:19:23.150Z,27.60
2018-08-03T21:21:25.361Z,27.60
2018-08-03T21:23:27.819Z,27.40
2018-08-03T21:25:30.020Z,27.50
2018-08-03T21:27:32.180Z,27.50
2018-08-03T21:29:34.339Z,27.50
2018-08-03T21:31:36.500Z,27.60
2018-08-03T21:33:38.867Z,27.50
2018-08-03T21:35:40.998Z,27.40
2018-08-03T21:37:43.168Z,27.40
2018-08-03T21:39:45.322Z,27.40
2018-08-03T21:41:47.490Z,27.40
2018-08-03T21:43:49.714Z,27.50
2018-08-03T21:45:51.902Z,27.40
2018-08-03T21:47:54.232Z,27.40
2018-08-03T21:49:56.431Z,27.30
2018-08-03T21:51:58.610Z,27.20
2018-08-03T21:54:00.770Z,27.20
2018-08-03T21:56:03.246Z,27.20
2018-08-03T21:58:05.559Z,27.20
2018-08-03T22:00:10.874Z,27.20
2018-08-03T22:02:13.076Z,27.10
2018-08-03T22:04:22.245Z,27.20
2018-08-03T22:06:24.430Z,27.00
2018-08-03T22:10:28.827Z,27.10
2018-08-03T22:12:31.010Z,27.20
2018-08-03T22:14:33.153Z,27.10
2018-08-03T22:16:35.326Z,27.10
2018-08-03T22:18:37.821Z,26.90
2018-08-03T22:20:39.944Z,26.80
2018-08-03T22:22:42.151Z,26.80
2018-08-03T22:24:44.322Z,26.80
2018-08-03T22:26:46.505Z,26.70
2018-08-03T22:28:48.731Z,26.70
2018-08-03T22:30:50.891Z,26.70
2018-08-03T22:32:53.102Z,26.70
2018-08-03T22:34:55.317Z,26.80
2018-08-03T22:36:57.504Z,26.80
2018-08-03T22:39:02.262Z,26.70
2018-08-03T22:41:04.425Z,26.70
2018-08-03T22:43:06.715Z,26.60
2018-08-03T22:45:08.902Z,26.60
2018-08-03T22:47:11.291Z,26.40
2018-08-03T22:49:13.472Z,26.30
2018-08-03T22:51:15.614Z,26.30
2018-08-03T22:53:17.791Z,26.20
2018-08-03T22:55:20.048Z,25.80
2018-08-03T22:57:22.296Z,26.00
2018-08-03T22:59:24.451Z,26.20
2018-08-03T23:01:26.611Z,26.20
2018-08-03T23:03:28.767Z,26.30
2018-08-03T23:05:31.098Z,26.40
2018-08-03T23:07:33.278Z,26.40
2018-08-03T23:09:36.022Z,26.30
2018-08-03T23:11:38.209Z,26.30
2018-08-03T23:13:40.581Z,26.20
2018-08-03T23:15:42.749Z,26.30
2018-08-03T23:17:44.913Z,26.40
2018-08-03T23:19:47.071Z,26.30
2018-08-03T23:21:49.385Z,26.30
2018-08-03T23:23:51.539Z,26.20
2018-08-03T23:25:53.889Z,26.20
2018-08-03T23:27:56.197Z,26.20
2018-08-03T23:29:58.349Z,26.20
2018-08-03T23:32:00.532Z,26.20
2018-08-03T23:34:03.457Z,26.10
2018-08-03T23:36:05.644Z,26.20
2018-08-03T23:38:07.882Z,26.20
2018-08-03T23:40:10.047Z,26.20
2018-08-03T23:42:12.467Z,26.20
2018-08-03T23:44:14.613Z,26.00
2018-08-03T23:46:16.795Z,26.20
2018-08-03T23:48:19.847Z,26.30
2018-08-03T23:50:22.095Z,26.30
2018-08-03T23:52:24.326Z,26.20
2018-08-03T23:54:26.458Z,26.20
2018-08-03T23:56:28.590Z,26.00
2018-08-03T23:58:30.755Z,26.20
